Time;durP1;ratioP1;P1;durP2;ratioP2;P2;SDS_P1;SDS_P2;PMS_P1;PMS_P2;Temp;Humidity;BMP_temperature;BMP_pressure;BME280_temperature;BME280_humidity;BME280_pressure;Samples;Min_cycle;Max_cycle;Signal;HPM_P1;HPM_P2
2021/04/03 00:00:18;;;;;;;26.08;14.38;;;;;;;25.70;16.43;97851.69;5092475;28;20445;-83
2021/04/03 00:02:45;;;;;;;28.45;14.43;;;;;;;25.60;16.30;97841.56;5099177;28;20056;-83
2021/04/03 00:05:12;;;;;;;29.15;14.38;;;;;;;25.63;16.13;97838.63;5094266;28;20043;-82
2021/04/03 00:07:39;;;;;;;27.58;14.00;;;;;;;25.67;16.19;97833.69;5091033;28;20475;-83
2021/04/03 00:10:20;;;;;;;25.92;12.75;;;;;;;25.64;16.27;97831.78;5100628;28;20450;-83
2021/04/03 00:12:46;;;;;;;22.05;11.98;;;;;;;25.60;16.37;97838.75;5092672;28;20028;-83
2021/04/03 00:15:13;;;;;;;25.95;13.98;;;;;;;25.53;16.36;97839.78;5095970;28;20024;-82
2021/04/03 00:17:39;;;;;;;24.27;13.43;;;;;;;25.42;16.28;97837.25;5095975;28;20034;-82
2021/04/03 00:20:10;;;;;;;28.95;14.43;;;;;;;25.23;16.50;97835.44;5091995;28;20384;-83
2021/04/03 00:22:36;;;;;;;;;;;;;;;24.77;17.40;97833.22;5071736;28;20110;-83
2021/04/03 00:25:03;;;;;;;33.20;15.40;;;;;;;24.85;17.21;97836.59;5090573;28;19976;-83
2021/04/03 00:27:30;;;;;;;30.88;14.13;;;;;;;24.84;17.10;97838.63;5067190;28;20028;-83
2021/04/03 00:29:56;;;;;;;26.85;12.90;;;;;;;25.12;16.65;97823.75;5088400;28;20080;-82
2021/04/03 00:32:23;;;;;;;30.23;14.27;;;;;;;25.49;16.50;97827.84;5095634;28;20484;-83
2021/04/03 00:34:49;;;;;;;27.35;13.10;;;;;;;25.65;16.44;97832.59;5095409;28;20438;-82
2021/04/03 00:37:15;;;;;;;27.38;13.52;;;;;;;25.69;16.18;97822.00;5100120;28;20476;-82
2021/04/03 00:39:42;;;;;;;27.30;12.32;;;;;;;25.73;15.89;97823.47;5098725;28;20028;-83
2021/04/03 00:42:15;;;;;;;28.30;13.60;;;;;;;25.72;15.87;97819.06;5087814;28;20060;-83
2021/04/03 00:44:44;;;;;;;29.00;14.07;;;;;;;25.66;15.82;97811.66;5087118;28;20028;-83
2021/04/03 00:47:11;;;;;;;23.67;12.00;;;;;;;25.54;16.22;97816.03;5083409;28;20465;-83
2021/04/03 00:49:37;;;;;;;28.60;13.38;;;;;;;24.70;16.97;97813.72;5091256;28;20039;-83
2021/04/03 00:52:10;;;;;;;28.70;13.18;;;;;;;24.28;17.20;97812.91;5101126;28;20067;-83
2021/04/03 00:54:37;;;;;;;22.35;12.23;;;;;;;24.13;17.35;97805.31;5077076;28;20028;-82
2021/04/03 00:57:05;;;;;;;27.10;13.45;;;;;;;24.01;17.33;97796.34;5105297;28;20492;-82
2021/04/03 00:59:31;;;;;;;26.05;13.27;;;;;;;24.24;16.92;97797.38;5097830;28;20024;-82
2021/04/03 01:01:58;;;;;;;22.63;10.73;;;;;;;24.39;17.13;97792.94;5080155;28;20502;-82
2021/04/03 01:04:24;;;;;;;28.55;13.10;;;;;;;24.27;17.51;97802.13;5097381;28;20031;-83
2021/04/03 01:06:50;;;;;;;29.40;13.13;;;;;;;24.05;17.48;97797.06;5103959;28;20038;-82
2021/04/03 01:09:16;;;;;;;24.85;12.52;;;;;;;23.84;17.63;97789.19;5096253;28;20032;-82
2021/04/03 01:12:02;;;;;;;26.00;13.10;;;;;;;23.86;17.60;97781.13;5105125;28;20038;-82
2021/04/03 01:14:51;;;;;;;26.60;12.40;;;;;;;23.87;17.79;97785.50;5096884;28;20048;-82
2021/04/03 01:17:47;;;;;;;29.67;13.57;;;;;;;23.54;17.88;97772.72;5103115;28;20032;-83
2021/04/03 01:20:34;;;;;;;27.35;12.05;;;;;;;23.55;17.94;97770.72;5099645;28;20040;-82
2021/04/03 01:23:35;;;;;;;27.95;13.00;;;;;;;23.38;18.25;97770.69;5096420;28;20166;-82
2021/04/03 01:26:19;;;;;;;31.80;13.57;;;;;;;23.35;18.21;97779.19;5083657;28;20028;-83
2021/04/03 01:29:39;;;;;;;27.35;13.60;;;;;;;23.40;18.26;97775.09;5087029;28;20031;-83
2021/04/03 01:32:06;;;;;;;24.95;13.18;;;;;;;23.25;18.15;97764.19;5011977;28;20526;-83
2021/04/03 01:34:36;;;;;;;28.40;13.60;;;;;;;23.10;18.46;97771.34;5013822;28;20144;-83
2021/04/03 01:37:05;;;;;;;29.77;14.13;;;;;;;23.04;18.30;97763.88;5057707;28;20044;-83
2021/04/03 01:39:35;;;;;;;25.45;14.05;;;;;;;23.27;18.18;97770.13;5095248;28;20122;-82
2021/04/03 01:42:05;;;;;;;26.23;12.00;;;;;;;23.75;17.63;97766.59;5097451;28;20044;-83
2021/04/03 01:44:35;;;;;;;26.55;14.00;;;;;;;24.18;17.13;97769.06;5097269;28;20024;-83
2021/04/03 01:47:03;;;;;;;28.40;13.18;;;;;;;24.35;16.97;97772.63;5097966;28;20507;-83
2021/04/03 01:49:32;;;;;;;35.25;17.45;;;;;;;24.31;17.04;97771.94;5095182;28;20027;-83
2021/04/03 01:51:59;;;;;;;32.22;15.43;;;;;;;24.17;17.13;97770.31;5102476;28;20027;-82
2021/04/03 01:54:27;;;;;;;39.40;17.83;;;;;;;24.23;17.14;97784.56;5100497;28;20475;-82
2021/04/03 01:56:56;;;;;;;31.17;15.00;;;;;;;24.29;17.08;97782.81;5097358;28;20102;-83
2021/04/03 01:59:23;;;;;;;35.50;17.77;;;;;;;24.35;17.04;97776.22;5097215;28;20031;-82
2021/04/03 02:01:54;;;;;;;30.60;16.17;;;;;;;24.23;17.06;97778.97;5102229;28;20084;-82
2021/04/03 02:04:22;;;;;;;29.60;14.65;;;;;;;24.41;16.83;97768.81;5098389;28;20588;-82
2021/04/03 02:06:48;;;;;;;25.90;13.23;;;;;;;24.68;16.61;97769.25;5102099;28;20020;-82
2021/04/03 02:09:16;;;;;;;34.20;15.68;;;;;;;24.75;16.47;97771.06;5093688;28;20408;-82
2021/04/03 02:11:48;;;;;;;28.33;13.95;;;;;;;24.70;16.40;97763.19;5104024;28;20403;-82
2021/04/03 02:14:16;;;;;;;26.02;12.63;;;;;;;24.67;16.62;97764.06;5106578;28;20082;-82
2021/04/03 02:16:45;;;;;;;33.47;14.82;;;;;;;24.61;16.57;97761.03;5095422;28;20043;-82
2021/04/03 02:19:12;;;;;;;30.35;13.77;;;;;;;24.40;17.05;97761.66;5103999;28;20039;-82
2021/04/03 02:21:41;;;;;;;28.42;14.70;;;;;;;24.09;17.56;97766.13;5101428;28;20471;-82
2021/04/03 02:24:08;;;;;;;27.20;12.85;;;;;;;24.12;17.29;97759.63;5096963;28;20543;-82
2021/04/03 02:26:36;;;;;;;21.00;10.90;;;;;;;24.30;17.21;97759.13;5093443;28;20032;-82
2021/04/03 02:29:05;;;;;;;25.40;11.98;;;;;;;24.53;16.77;97761.69;5099007;28;20039;-82
2021/04/03 02:31:32;;;;;;;33.22;15.75;;;;;;;24.53;16.89;97759.66;5099106;28;20536;-82
2021/04/03 02:33:59;;;;;;;36.83;17.77;;;;;;;23.96;17.60;97771.66;5072772;28;20028;-82
2021/04/03 02:36:25;;;;;;;32.25;16.67;;;;;;;23.88;17.98;97769.44;5095519;28;20437;-82
2021/04/03 02:38:52;;;;;;;30.90;15.60;;;;;;;23.99;17.84;97770.00;5101268;28;20479;-82
2021/04/03 02:41:24;;;;;;;27.17;13.05;;;;;;;24.34;17.33;97752.19;5102756;28;20511;-82
2021/04/03 02:44:20;;;;;;;23.33;11.50;;;;;;;24.47;17.23;97743.81;5091115;28;20396;-82
2021/04/03 02:46:50;;;;;;;23.88;11.48;;;;;;;24.68;16.77;97744.00;5103894;28;20116;-82
2021/04/03 02:49:29;;;;;;;32.55;13.50;;;;;;;24.38;17.39;97738.06;5096628;28;20030;-82
2021/04/03 02:51:57;;;;;;;30.83;14.30;;;;;;;24.19;17.49;97739.00;5099015;28;20023;-82
2021/04/03 02:54:26;;;;;;;25.08;12.85;;;;;;;23.79;17.82;97739.25;5095313;28;20027;-83
2021/04/03 02:56:54;;;;;;;30.75;14.82;;;;;;;23.51;18.13;97750.38;5101880;28;20486;-82
2021/04/03 02:59:27;;;;;;;23.63;12.15;;;;;;;23.30;18.60;97746.88;5098921;28;20492;-82
2021/04/03 03:01:55;;;;;;;23.17;12.32;;;;;;;22.99;18.97;97751.19;5093503;28;20042;-82
2021/04/03 03:04:23;;;;;;;27.90;12.00;;;;;;;23.15;18.77;97748.41;5097691;28;20034;-82
2021/04/03 03:06:51;;;;;;;25.77;12.60;;;;;;;23.21;18.72;97746.69;5108337;28;20024;-82
2021/04/03 03:09:18;;;;;;;24.45;12.02;;;;;;;23.59;18.16;97744.19;5095478;28;20496;-82
2021/04/03 03:11:48;;;;;;;27.35;14.10;;;;;;;23.86;17.95;97743.88;5103660;28;20039;-82
2021/04/03 03:14:16;;;;;;;24.67;12.57;;;;;;;24.06;17.56;97733.38;5092282;28;20394;-82
2021/04/03 03:16:46;;;;;;;28.95;14.40;;;;;;;24.22;17.62;97744.53;5080013;28;20135;-82
2021/04/03 03:19:14;;;;;;;29.75;14.10;;;;;;;23.91;17.90;97752.56;5096272;28;20071;-82
2021/04/03 03:21:41;;;;;;;26.63;11.90;;;;;;;23.84;17.79;97741.53;5102201;28;20399;-82
2021/04/03 03:24:11;;;;;;;23.02;11.48;;;;;;;23.79;17.81;97739.25;5099000;28;20061;-82
2021/04/03 03:26:39;;;;;;;26.67;12.05;;;;;;;23.86;17.79;97743.88;5103259;28;20034;-82
2021/04/03 03:29:09;;;;;;;26.35;13.27;;;;;;;24.08;17.44;97744.13;5087265;28;20084;-82
2021/04/03 03:31:35;;;;;;;24.83;11.18;;;;;;;24.19;17.25;97737.00;5095692;28;20024;-82
2021/04/03 03:34:01;;;;;;;18.60;9.40;;;;;;;24.46;17.12;97740.22;5097136;28;20598;-82
2021/04/03 03:36:29;;;;;;;18.45;8.65;;;;;;;24.88;16.52;97732.59;5096666;28;20035;-82
2021/04/03 03:38:56;;;;;;;18.17;8.85;;;;;;;25.17;16.62;97738.09;5086722;28;20115;-82
2021/04/03 03:41:24;;;;;;;19.73;10.23;;;;;;;25.17;15.79;97724.06;5099131;28;20071;-82
2021/04/03 03:43:52;;;;;;;20.98;11.23;;;;;;;24.76;16.36;97726.94;5093980;28;20034;-82
2021/04/03 03:46:18;;;;;;;17.33;8.98;;;;;;;24.52;16.86;97710.38;5098336;28;20149;-82
2021/04/03 03:48:44;;;;;;;18.02;8.68;;;;;;;24.83;16.75;97719.13;5085365;28;20081;-82
2021/04/03 03:51:11;;;;;;;19.52;10.25;;;;;;;25.02;16.45;97722.94;5081601;28;20090;-82
2021/04/03 03:53:37;;;;;;;21.13;9.63;;;;;;;24.96;16.43;97722.72;5098632;28;20043;-82
2021/04/03 03:56:04;;;;;;;19.48;9.32;;;;;;;24.92;16.48;97718.44;5100832;28;20028;-81
2021/04/03 03:58:31;;;;;;;20.77;9.88;;;;;;;25.01;16.47;97713.72;5095668;28;20135;-82
2021/04/03 04:00:57;;;;;;;16.48;8.65;;;;;;;24.92;16.62;97713.63;5102942;28;20036;-82
2021/04/03 04:03:23;;;;;;;17.65;8.63;;;;;;;24.90;16.70;97710.44;5098530;28;20110;-82
2021/04/03 04:05:49;;;;;;;21.13;9.82;;;;;;;24.95;16.57;97712.69;5098331;28;20030;-82
2021/04/03 04:08:18;;;;;;;21.20;10.45;;;;;;;24.91;16.63;97714.03;5094945;28;20028;-81
2021/04/03 04:10:44;;;;;;;20.33;10.77;;;;;;;24.87;16.50;97710.56;5101147;28;20062;-81
2021/04/03 04:13:11;;;;;;;18.80;9.57;;;;;;;25.08;16.25;97710.69;5096046;28;20040;-82
2021/04/03 04:15:37;;;;;;;20.20;9.93;;;;;;;25.35;16.03;97711.00;5099763;28;20032;-82
2021/04/03 04:18:04;;;;;;;20.02;10.18;;;;;;;25.42;15.79;97707.16;5096395;28;20031;-82
2021/04/03 04:20:32;;;;;;;22.65;10.98;;;;;;;25.40;15.77;97710.44;5103503;28;20036;-82
2021/04/03 04:22:59;;;;;;;16.45;8.50;;;;;;;24.64;16.33;97703.22;5085983;28;20048;-82
2021/04/03 04:25:25;;;;;;;17.48;9.23;;;;;;;24.73;16.22;97706.16;5101758;28;20115;-82
2021/04/03 04:27:51;;;;;;;19.88;9.10;;;;;;;24.89;16.06;97714.50;5095335;28;20040;-82
2021/04/03 04:30:18;;;;;;;17.35;9.00;;;;;;;24.82;16.17;97709.09;5094318;28;20496;-82
2021/04/03 04:32:45;;;;;;;23.10;10.20;;;;;;;24.91;16.27;97712.03;5074942;28;20043;-82
2021/04/03 04:35:13;;;;;;;14.40;7.72;;;;;;;24.82;16.50;97705.50;5091549;28;20051;-82
2021/04/03 04:37:40;;;;;;;21.83;9.73;;;;;;;24.78;16.65;97716.06;5089697;28;20024;-82
2021/04/03 04:40:08;;;;;;;18.98;9.48;;;;;;;24.33;17.20;97710.56;5089445;28;20032;-82
2021/04/03 04:42:35;;;;;;;22.52;11.20;;;;;;;24.44;16.95;97705.41;5079256;28;20433;-81
2021/04/03 04:45:01;;;;;;;18.67;9.60;;;;;;;24.76;16.71;97708.09;5067439;28;20031;-81
2021/04/03 04:47:27;;;;;;;21.33;10.25;;;;;;;24.71;16.92;97708.63;5089066;28;20495;-82
2021/04/03 04:49:53;;;;;;;22.55;10.95;;;;;;;24.82;16.88;97699.91;5073764;28;20184;-82
2021/04/03 04:52:20;;;;;;;25.13;11.40;;;;;;;25.07;16.72;97697.88;5081934;28;20031;-81
2021/04/03 04:54:46;;;;;;;20.40;9.52;;;;;;;25.23;16.63;97705.38;5090789;28;20039;-81
2021/04/03 04:57:12;;;;;;;21.10;9.65;;;;;;;25.40;16.29;97712.47;5090177;28;20039;-81
2021/04/03 04:59:39;;;;;;;19.73;9.38;;;;;;;25.17;16.72;97724.06;5071761;28;20516;-81
2021/04/03 05:02:05;;;;;;;21.67;9.73;;;;;;;25.30;16.48;97716.41;5092118;28;20028;-83
2021/04/03 05:04:31;;;;;;;24.30;11.00;;;;;;;25.07;16.82;97725.97;5086706;28;20036;-81
2021/04/03 05:06:57;;;;;;;26.55;10.20;;;;;;;25.15;16.55;97732.16;5083898;28;20068;-83
2021/04/03 05:09:23;;;;;;;22.00;10.60;;;;;;;25.38;16.84;97735.41;5085166;28;20055;-82
2021/04/03 05:11:49;;;;;;;20.02;10.45;;;;;;;25.53;16.68;97743.41;5085526;28;20040;-82
2021/04/03 05:14:15;;;;;;;20.00;9.85;;;;;;;25.70;16.72;97747.63;5098528;28;20040;-83
2021/04/03 05:16:41;;;;;;;20.75;10.82;;;;;;;25.67;16.65;97757.00;5094118;28;20411;-82
2021/04/03 05:19:08;;;;;;;20.70;10.45;;;;;;;25.76;16.67;97763.50;5088577;28;20035;-84
2021/04/03 05:21:34;;;;;;;21.13;10.88;;;;;;;25.56;16.67;97762.16;5070220;28;20074;-86
2021/04/03 05:24:00;;;;;;;19.95;9.82;;;;;;;25.50;16.86;97769.59;5071684;28;20037;-86
2021/04/03 05:26:26;;;;;;;21.92;11.20;;;;;;;25.82;16.78;97770.13;5079976;28;20038;-85
2021/04/03 05:28:52;;;;;;;20.33;10.20;;;;;;;25.94;16.44;97779.75;5077559;28;20059;-85
2021/04/03 05:31:20;;;;;;;19.98;9.95;;;;;;;25.98;16.50;97777.59;5078609;28;20500;-86
2021/04/03 05:33:47;;;;;;;23.25;11.75;;;;;;;25.86;16.69;97776.41;5080686;28;20073;-86
2021/04/03 05:36:13;;;;;;;21.83;11.88;;;;;;;25.83;16.75;97787.78;5080628;28;20034;-84
2021/04/03 05:38:40;;;;;;;20.30;10.30;;;;;;;25.97;16.61;97790.91;5101253;28;20040;-85
2021/04/03 05:41:06;;;;;;;21.13;11.27;;;;;;;25.86;16.80;97796.09;5075229;28;20484;-83
2021/04/03 05:43:34;;;;;;;23.55;10.85;;;;;;;25.68;17.13;97801.53;5095479;28;20051;-84
2021/04/03 05:46:02;;;;;;;18.23;9.65;;;;;;;25.58;17.10;97799.06;5095547;28;20028;-85
2021/04/03 05:48:29;;;;;;;18.40;9.93;;;;;;;25.42;17.69;97797.13;5093393;28;20553;-85
2021/04/03 05:50:58;;;;;;;21.17;10.20;;;;;;;25.44;17.74;97800.28;5077880;28;20040;-84
2021/04/03 05:53:25;;;;;;;25.27;11.93;;;;;;;24.44;18.89;97800.84;5086393;28;20428;-84
2021/04/03 05:55:55;;;;;;;20.92;11.20;;;;;;;24.11;19.50;97805.72;5107629;28;20036;-83
2021/04/03 05:58:22;;;;;;;21.95;11.13;;;;;;;24.87;18.75;97806.06;5087724;28;20016;-83
2021/04/03 06:00:50;;;;;;;22.02;10.35;;;;;;;24.87;18.90;97806.84;5099035;28;20028;-83
2021/04/03 06:03:17;;;;;;;19.65;10.40;;;;;;;24.89;19.03;97803.59;5087375;28;20492;-81
2021/04/03 06:05:49;;;;;;;24.63;11.43;;;;;;;25.46;18.38;97805.47;5077435;28;20400;-82
2021/04/03 06:08:15;;;;;;;22.42;11.88;;;;;;;25.83;18.12;97807.47;5075494;28;20036;-82
2021/04/03 06:10:41;;;;;;;19.67;10.65;;;;;;;25.85;18.41;97805.00;5084934;28;20063;-84
2021/04/03 06:13:18;;;;;;;21.92;11.38;;;;;;;25.85;18.35;97813.44;5076997;28;20046;-84
2021/04/03 06:15:44;;;;;;;20.45;10.35;;;;;;;25.94;18.27;97816.34;5078564;28;20036;-84
2021/04/03 06:18:12;;;;;;;26.05;13.82;;;;;;;24.86;18.83;97818.50;5063036;28;20028;-84
2021/04/03 06:20:40;;;;;;;21.85;11.70;;;;;;;25.23;18.97;97817.78;5075695;28;20396;-84
2021/04/03 06:23:08;;;;;;;26.95;13.55;;;;;;;24.24;19.52;97819.84;5086400;28;20077;-84
2021/04/03 06:25:58;;;;;;;25.13;13.98;;;;;;;23.54;20.50;97825.97;5088653;28;20086;-84
2021/04/03 06:28:29;;;;;;;29.23;15.80;;;;;;;23.33;21.04;97824.44;5087721;28;20095;-87
2021/04/03 06:31:19;;;;;;;25.98;13.75;;;;;;;22.56;21.62;97826.88;5085448;28;20040;-85
2021/04/03 06:33:46;;;;;;;24.55;13.32;;;;;;;22.66;22.04;97833.50;5080598;28;20112;-89
2021/04/03 06:36:14;;;;;;;29.67;16.25;;;;;;;22.12;22.43;97835.69;5087220;28;20043;-86
2021/04/03 06:38:41;;;;;;;24.00;12.73;;;;;;;22.79;22.01;97842.03;5093950;28;20365;-87
2021/04/03 06:41:22;;;;;;;26.50;15.25;;;;;;;22.39;21.85;97839.19;5083906;28;20119;-89
2021/04/03 06:44:09;;;;;;;20.25;12.48;;;;;;;22.17;22.33;97837.97;5069772;28;20032;-90
2021/04/03 06:46:37;;;;;;;24.40;12.70;;;;;;;21.94;22.95;97846.38;5087975;28;20067;-87
2021/04/03 06:49:04;;;;;;;26.15;12.82;;;;;;;22.02;22.56;97840.25;5080247;28;20035;-87
2021/04/03 06:51:31;;;;;;;30.30;15.68;;;;;;;21.71;22.97;97849.13;5085489;28;20047;-87
2021/04/03 06:54:00;;;;;;;26.30;13.98;;;;;;;22.03;22.77;97838.25;5083383;28;20404;-88
2021/04/03 06:56:34;;;;;;;25.73;14.15;;;;;;;21.67;22.90;97838.03;5084346;28;20060;-87
2021/04/03 06:59:11;;;;;;;27.27;16.00;;;;;;;21.20;23.77;97842.72;5090731;28;20410;-88
2021/04/03 07:01:49;;;;;;;32.10;18.27;;;;;;;21.35;23.56;97852.47;5080898;28;20028;-87
2021/04/03 07:04:43;;;;;;;27.20;15.45;;;;;;;20.66;24.14;97850.16;5082290;28;20031;-86
2021/04/03 07:07:11;;;;;;;26.65;15.88;;;;;;;20.59;24.73;97850.25;5088946;28;20035;-86
2021/04/03 07:09:39;;;;;;;25.13;13.63;;;;;;;20.57;24.65;97841.50;5090150;28;20021;-86
2021/04/03 07:12:08;;;;;;;24.90;14.85;;;;;;;20.49;24.86;97853.19;5087301;28;20039;-86
2021/04/03 07:14:35;;;;;;;22.00;13.15;;;;;;;20.94;24.12;97840.66;5065655;28;20118;-86
2021/04/03 07:17:02;;;;;;;30.27;15.80;;;;;;;21.27;24.23;97853.00;5063860;28;20043;-87
2021/04/03 07:19:30;;;;;;;20.75;12.10;;;;;;;21.06;24.24;97864.47;5068690;28;20503;-86
2021/04/03 07:21:56;;;;;;;26.77;13.55;;;;;;;22.03;23.04;97866.97;5060631;28;20037;-86
2021/04/03 07:24:23;;;;;;;27.58;15.52;;;;;;;22.85;21.72;97873.91;5066282;28;20037;-85
2021/04/03 07:26:51;;;;;;;28.30;14.60;;;;;;;22.24;22.92;97876.25;5071170;28;20538;-86
2021/04/03 07:29:50;;;;;;;32.15;16.90;;;;;;;21.10;24.21;97879.16;5072086;28;20032;-85
2021/04/03 07:32:39;;;;;;;28.67;17.02;;;;;;;21.81;23.61;97882.50;5063060;28;20039;-86
2021/04/03 07:35:19;;;;;;;27.15;14.73;;;;;;;22.47;22.64;97888.19;5072427;28;20427;-85
2021/04/03 07:37:47;;;;;;;31.77;18.17;;;;;;;21.17;23.93;97891.03;5071771;28;20036;-85
2021/04/03 07:40:15;;;;;;;24.60;14.23;;;;;;;21.65;23.64;97901.94;5072028;28;20370;-85
2021/04/03 07:42:42;;;;;;;24.42;14.25;;;;;;;22.82;22.33;97899.94;5058917;28;20087;-85
2021/04/03 07:45:31;;;;;;;25.20;14.90;;;;;;;23.06;21.82;97895.84;5071226;28;20036;-87
2021/04/03 07:47:57;;;;;;;32.50;17.80;;;;;;;21.99;23.12;97905.41;5059929;28;20035;-85
2021/04/03 07:50:47;;;;;;;41.30;21.52;;;;;;;20.47;24.82;97912.13;5062602;28;20024;-85
2021/04/03 07:53:31;;;;;;;33.83;18.75;;;;;;;20.93;24.50;97917.22;5027618;28;20142;-85
2021/04/03 07:55:57;;;;;;;29.05;15.40;;;;;;;21.65;24.14;97917.91;5071172;28;20024;-87
2021/04/03 07:58:28;;;;;;;28.80;18.08;;;;;;;20.22;25.09;97919.16;5065680;28;20039;-85
2021/04/03 08:00:57;;;;;;;29.08;16.55;;;;;;;19.05;27.12;97928.22;5064291;28;20123;-86
2021/04/03 08:03:26;;;;;;;23.27;13.63;;;;;;;20.61;25.03;97925.94;5064086;28;20048;-86
2021/04/03 08:06:02;;;;;;;23.08;13.43;;;;;;;21.04;24.33;97926.28;5059241;28;20051;-86
2021/04/03 08:08:30;;;;;;;25.63;15.45;;;;;;;21.56;23.98;97918.44;5063983;28;20115;-87
2021/04/03 08:11:11;;;;;;;26.13;13.70;;;;;;;21.24;23.88;97924.44;5069012;28;20037;-88
2021/04/03 08:13:38;;;;;;;;;;;;;;;22.50;23.01;97926.50;5061956;28;20032;-87
2021/04/03 08:16:06;;;;;;;17.08;10.65;;;;;;;23.40;21.70;97924.38;5044744;28;19917;-85
2021/04/03 08:18:35;;;;;;;16.10;10.63;;;;;;;23.18;22.14;97932.41;5061342;28;20060;-86
2021/04/03 08:21:02;;;;;;;17.52;8.98;;;;;;;23.14;21.98;97934.50;5054758;28;20056;-88
2021/04/03 08:23:37;;;;;;;17.92;11.00;;;;;;;22.68;22.17;97926.97;5059888;28;20073;-85
2021/04/03 08:26:05;;;;;;;19.15;11.25;;;;;;;23.28;22.15;97936.22;5037191;28;20067;-86
2021/04/03 08:28:32;;;;;;;15.85;10.25;;;;;;;23.31;22.20;97935.34;5055517;28;20021;-85
2021/04/03 08:31:19;;;;;;;17.52;9.88;;;;;;;23.62;21.79;97933.88;5057353;28;20074;-86
2021/04/03 08:33:47;;;;;;;15.63;9.65;;;;;;;23.69;21.70;97938.53;5056398;28;20044;-85
2021/04/03 08:36:16;;;;;;;14.23;9.43;;;;;;;23.13;22.14;97940.50;5063128;28;20028;-84
2021/04/03 08:38:43;;;;;;;15.40;9.18;;;;;;;22.64;22.81;97945.06;5072419;28;20116;-87
2021/04/03 08:41:15;;;;;;;15.93;10.40;;;;;;;22.94;22.77;97938.50;5062680;28;20033;-84
2021/04/03 08:43:41;;;;;;;15.13;9.07;;;;;;;22.33;24.04;97938.81;5059846;28;20041;-86
2021/04/03 08:46:11;;;;;;;15.73;9.77;;;;;;;22.67;23.69;97949.81;5055190;28;20087;-86
2021/04/03 08:48:40;;;;;;;15.10;9.38;;;;;;;23.64;22.74;97934.22;5051118;28;20037;-86
2021/04/03 08:51:08;;;;;;;13.43;8.52;;;;;;;23.88;22.32;97944.09;5050380;28;20036;-86
2021/04/03 08:53:48;;;;;;;14.23;9.23;;;;;;;22.71;23.38;97941.38;5064864;28;20024;-85
2021/04/03 08:56:24;;;;;;;16.65;10.98;;;;;;;23.00;23.65;97936.78;5045341;28;20028;-86
2021/04/03 08:58:52;;;;;;;13.77;9.82;;;;;;;23.34;22.77;97940.06;5045425;28;20119;-86
2021/04/03 09:01:20;;;;;;;13.70;9.45;;;;;;;23.33;22.52;97942.09;5063791;28;20029;-87
2021/04/03 09:03:48;;;;;;;11.65;8.13;;;;;;;23.07;22.53;97945.84;5058787;28;20068;-86
2021/04/03 09:06:15;;;;;;;15.80;10.18;;;;;;;23.21;22.47;97944.75;5071670;28;20587;-85
2021/04/03 09:08:41;;;;;;;16.73;10.75;;;;;;;23.21;23.08;97945.56;5065999;28;20439;-86
2021/04/03 09:11:07;;;;;;;18.65;11.32;;;;;;;23.14;23.31;97940.09;5067969;28;20056;-94
2021/04/03 09:13:34;;;;;;;15.13;9.40;;;;;;;22.84;23.63;97942.31;5053725;28;20092;-88
2021/04/03 09:16:07;;;;;;;14.90;10.48;;;;;;;22.62;23.75;97944.69;5067003;28;20028;-88
2021/04/03 09:18:33;;;;;;;14.38;9.63;;;;;;;22.77;23.55;97942.44;5067149;28;20059;-88
2021/04/03 09:21:00;;;;;;;12.35;8.70;;;;;;;22.37;24.54;97947.13;5069981;28;20039;-88
2021/04/03 09:23:26;;;;;;;13.07;8.52;;;;;;;23.17;23.18;97944.03;5069578;28;20470;-88
2021/04/03 09:26:03;;;;;;;13.38;8.93;;;;;;;22.69;23.50;97948.16;5066120;28;20064;-89
2021/04/03 09:28:37;;;;;;;11.27;8.02;;;;;;;21.82;24.34;97950.38;5063823;28;20396;-87
2021/04/03 09:31:04;;;;;;;12.43;8.73;;;;;;;21.13;25.57;97959.28;5061540;28;20099;-87
2021/04/03 09:33:31;;;;;;;12.95;8.45;;;;;;;20.74;25.83;97961.69;5069360;28;20029;-86
2021/04/03 09:36:17;;;;;;;11.02;9.05;;;;;;;19.27;27.64;97963.13;5070294;28;20492;-88
2021/04/03 09:38:44;;;;;;;15.35;9.98;;;;;;;20.99;25.64;97956.63;5070805;28;20492;-88
2021/04/03 09:41:30;;;;;;;13.50;8.05;;;;;;;21.31;24.75;97957.06;5073751;28;20040;-88
2021/04/03 09:43:57;;;;;;;8.98;5.85;;;;;;;21.76;24.80;97960.44;5068694;28;20515;-89
2021/04/03 09:46:23;;;;;;;7.82;5.70;;;;;;;22.09;23.56;97959.56;5068982;28;20063;-89
2021/04/03 09:48:50;;;;;;;9.25;6.10;;;;;;;21.70;23.83;97962.13;5058796;28;20075;-88
2021/04/03 09:51:16;;;;;;;7.47;5.97;;;;;;;21.80;24.38;97959.16;5064993;28;20035;-89
2021/04/03 09:53:43;;;;;;;10.27;5.35;;;;;;;21.83;23.63;97965.91;5061723;28;20384;-89
2021/04/03 09:56:09;;;;;;;7.05;5.68;;;;;;;22.07;23.70;97967.59;5064898;28;20033;-89
2021/04/03 09:58:35;;;;;;;8.25;5.70;;;;;;;22.67;22.71;97973.00;5055546;28;20025;-90
2021/04/03 10:01:05;;;;;;;8.98;5.53;;;;;;;23.49;21.97;97974.22;5063984;28;20461;-90
2021/04/03 10:03:31;;;;;;;8.48;5.57;;;;;;;23.66;21.11;97964.66;5068977;28;20020;-89
2021/04/03 10:05:57;;;;;;;8.35;5.72;;;;;;;23.47;21.35;97974.66;5068662;28;20404;-89
2021/04/03 10:08:23;;;;;;;6.78;4.15;;;;;;;21.95;23.32;97977.34;5060242;28;20037;-88
2021/04/03 10:10:49;;;;;;;9.93;6.25;;;;;;;22.71;22.91;97978.50;5062728;28;20060;-89
2021/04/03 10:13:15;;;;;;;11.50;8.13;;;;;;;22.49;23.30;97978.09;5064607;28;20038;-89
2021/04/03 10:15:41;;;;;;;11.13;7.93;;;;;;;22.94;22.89;97988.91;5083672;28;20476;-89
2021/04/03 10:18:08;;;;;;;11.93;8.15;;;;;;;22.67;23.27;97992.59;5086663;28;20387;-90
2021/04/03 10:20:34;;;;;;;15.77;10.02;;;;;;;19.92;26.00;98003.38;5082963;28;20036;-91
2021/04/03 10:23:00;;;;;;;12.77;9.13;;;;;;;20.18;25.89;98002.00;5082271;28;20119;-92
2021/04/03 10:25:26;;;;;;;11.23;7.50;;;;;;;22.08;23.86;97990.75;5084523;28;20028;-92
2021/04/03 10:27:54;;;;;;;13.30;8.30;;;;;;;23.61;22.34;97987.56;5084720;28;20078;-92
2021/04/03 10:30:20;;;;;;;11.13;8.98;;;;;;;24.71;21.26;97984.53;5083693;28;20039;-90
2021/04/03 10:32:47;;;;;;;8.65;6.32;;;;;;;25.48;20.74;97980.09;5080802;28;20055;-90
2021/04/03 10:35:13;;;;;;;12.43;7.18;;;;;;;25.96;19.84;97979.84;5069116;28;20856;-88
2021/04/03 10:37:39;;;;;;;6.72;5.40;;;;;;;26.19;20.15;97979.53;5082484;28;20115;-91
2021/04/03 10:40:06;;;;;;;7.15;4.70;;;;;;;26.29;20.03;97981.22;5084856;28;20055;-90
2021/04/03 10:42:32;;;;;;;6.78;4.22;;;;;;;26.57;19.91;97979.50;5080002;28;20496;-91
2021/04/03 10:44:58;;;;;;;6.28;4.50;;;;;;;26.86;19.09;97982.16;5087408;28;20028;-90
2021/04/03 10:47:26;;;;;;;8.68;4.57;;;;;;;26.95;19.36;97987.88;5082743;28;20039;-91
2021/04/03 10:49:52;;;;;;;9.38;4.72;;;;;;;27.34;19.56;97982.41;5084093;28;20033;-90
2021/04/03 10:52:18;;;;;;;7.75;4.35;;;;;;;27.56;19.42;97982.44;5082617;28;20106;-90
2021/04/03 10:54:44;;;;;;;6.00;4.07;;;;;;;27.96;19.17;97977.66;5066428;28;20040;-90
2021/04/03 10:57:10;;;;;;;8.27;5.53;;;;;;;27.67;19.31;97982.84;5066167;28;20039;-90
2021/04/03 10:59:36;;;;;;;8.13;4.68;;;;;;;28.36;19.90;97976.91;5081043;28;20119;-93
2021/04/03 11:02:03;;;;;;;8.70;5.10;;;;;;;28.28;19.11;97967.16;5083830;28;20048;-91
2021/04/03 11:04:29;;;;;;;5.55;4.63;;;;;;;28.55;18.31;97975.69;5093438;28;20051;-91
2021/04/03 11:06:55;;;;;;;6.22;4.72;;;;;;;28.14;18.59;97970.56;5091748;28;20107;-91
2021/04/03 11:09:21;;;;;;;6.90;5.40;;;;;;;28.04;18.51;97973.34;5080892;28;20052;-91
2021/04/03 11:11:47;;;;;;;7.68;5.20;;;;;;;27.69;19.50;97965.44;5078575;28;20040;-91
2021/04/03 11:14:13;;;;;;;8.88;5.78;;;;;;;27.64;18.88;97966.03;5078192;28;20109;-92
2021/04/03 11:16:39;;;;;;;8.23;4.53;;;;;;;27.52;18.54;97961.25;5083975;28;20037;-91
2021/04/03 11:19:05;;;;;;;8.20;5.28;;;;;;;27.35;18.61;97961.41;5077562;28;20037;-91
2021/04/03 11:21:31;;;;;;;4.85;3.70;;;;;;;27.20;18.29;97962.41;5070616;28;20119;-91
2021/04/03 11:23:58;;;;;;;5.05;4.20;;;;;;;27.24;18.59;97968.69;5082967;28;20028;-91
2021/04/03 11:26:24;;;;;;;6.70;4.65;;;;;;;26.91;17.98;97967.50;5087554;28;20055;-91
2021/04/03 11:28:50;;;;;;;4.63;3.75;;;;;;;26.83;17.85;97977.44;5081143;28;20107;-92
2021/04/03 11:31:16;;;;;;;10.07;6.38;;;;;;;25.40;20.04;97976.69;5085492;28;20484;-91